sensor_id;sensor_type;location;lat;lon;timestamp;pressure;altitude;pressure_sealevel;temperature;humidity
4586;BME280;2305;50.118;8.952;2022-12-16T00:00:32;99709.13;;;-4.56;100.00
4586;BME280;2305;50.118;8.952;2022-12-16T00:03:00;99709.13;;;-4.56;100.00
4586;BME280;2305;50.118;8.952;2022-12-16T00:05:29;99711.66;;;-4.54;100.00
4586;BME280;2305;50.118;8.952;2022-12-16T00:07:57;99712.53;;;-4.55;100.00
4586;BME280;2305;50.118;8.952;2022-12-16T00:10:28;99713.38;;;-4.55;100.00
4586;BME280;2305;50.118;8.952;2022-12-16T00:13:16;99713.38;;;-4.55;100.00
4586;BME280;2305;50.118;8.952;2022-12-16T00:15:48;99713.53;;;-4.59;100.00
4586;BME280;2305;50.118;8.952;2022-12-16T00:18:17;99715.25;;;-4.60;100.00
4586;BME280;2305;50.118;8.952;2022-12-16T00:20:46;99711.75;;;-4.57;100.00
4586;BME280;2305;50.118;8.952;2022-12-16T00:23:17;99713.66;;;-4.64;100.00
4586;BME280;2305;50.118;8.952;2022-12-16T00:25:46;99714.50;;;-4.63;100.00
4586;BME280;2305;50.118;8.952;2022-12-16T00:28:16;99710.16;;;-4.61;100.00
4586;BME280;2305;50.118;8.952;2022-12-16T00:30:53;99708.47;;;-4.62;100.00
4586;BME280;2305;50.118;8.952;2022-12-16T00:33:26;99707.53;;;-4.60;100.00
4586;BME280;2305;50.118;8.952;2022-12-16T00:35:57;99716.00;;;-4.56;100.00
4586;BME280;2305;50.118;8.952;2022-12-16T00:38:26;99714.28;;;-4.56;100.00
4586;BME280;2305;50.118;8.952;2022-12-16T00:40:55;99714.03;;;-4.48;100.00
4586;BME280;2305;50.118;8.952;2022-12-16T00:43:26;99715.81;;;-4.50;100.00
4586;BME280;2305;50.118;8.952;2022-12-16T00:45:56;99707.34;;;-4.54;100.00
4586;BME280;2305;50.118;8.952;2022-12-16T00:48:24;99704.97;;;-4.60;100.00
4586;BME280;2305;50.118;8.952;2022-12-16T00:50:55;99703.13;;;-4.56;100.00
4586;BME280;2305;50.118;8.952;2022-12-16T00:53:24;99713.38;;;-4.55;100.00
4586;BME280;2305;50.118;8.952;2022-12-16T00:56:00;99713.66;;;-4.64;100.00
4586;BME280;2305;50.118;8.952;2022-12-16T00:58:28;99712.09;;;-4.69;100.00
4586;BME280;2305;50.118;8.952;2022-12-16T01:01:00;99714.63;;;-4.68;100.00
4586;BME280;2305;50.118;8.952;2022-12-16T01:03:28;99713.75;;;-4.67;100.00
4586;BME280;2305;50.118;8.952;2022-12-16T01:05:57;99714.56;;;-4.65;100.00
4586;BME280;2305;50.118;8.952;2022-12-16T01:08:25;99718.81;;;-4.64;100.00
4586;BME280;2305;50.118;8.952;2022-12-16T01:10:55;99727.31;;;-4.62;100.00
4586;BME280;2305;50.118;8.952;2022-12-16T01:13:24;99724.84;;;-4.65;100.00
4586;BME280;2305;50.118;8.952;2022-12-16T01:15:52;99724.78;;;-4.63;100.00
4586;BME280;2305;50.118;8.952;2022-12-16T01:18:22;99723.94;;;-4.64;100.00
4586;BME280;2305;50.118;8.952;2022-12-16T01:20:50;99734.31;;;-4.67;100.00
4586;BME280;2305;50.118;8.952;2022-12-16T01:23:20;99737.75;;;-4.68;100.00
4586;BME280;2305;50.118;8.952;2022-12-16T01:25:51;99748.81;;;-4.66;100.00
4586;BME280;2305;50.118;8.952;2022-12-16T01:28:20;99750.59;;;-4.68;100.00
4586;BME280;2305;50.118;8.952;2022-12-16T01:30:57;99748.72;;;-4.61;100.00
4586;BME280;2305;50.118;8.952;2022-12-16T01:33:29;99753.94;;;-4.64;100.00
4586;BME280;2305;50.118;8.952;2022-12-16T01:36:01;99757.53;;;-4.70;100.00
4586;BME280;2305;50.118;8.952;2022-12-16T01:38:31;99759.25;;;-4.70;100.00
4586;BME280;2305;50.118;8.952;2022-12-16T01:41:00;99764.44;;;-4.72;100.00
4586;BME280;2305;50.118;8.952;2022-12-16T01:43:33;99760.28;;;-4.76;100.00
4586;BME280;2305;50.118;8.952;2022-12-16T01:46:07;99775.53;;;-4.71;100.00
4586;BME280;2305;50.118;8.952;2022-12-16T01:48:43;99779.91;;;-4.73;100.00
4586;BME280;2305;50.118;8.952;2022-12-16T01:51:17;99779.91;;;-4.73;100.00
4586;BME280;2305;50.118;8.952;2022-12-16T01:53:52;99782.63;;;-4.79;100.00
4586;BME280;2305;50.118;8.952;2022-12-16T01:56:44;99777.50;;;-4.79;100.00
4586;BME280;2305;50.118;8.952;2022-12-16T01:59:17;99784.47;;;-4.84;100.00
4586;BME280;2305;50.118;8.952;2022-12-16T02:01:46;99784.53;;;-4.86;100.00
4586;BME280;2305;50.118;8.952;2022-12-16T02:04:18;99791.41;;;-4.86;100.00
4586;BME280;2305;50.118;8.952;2022-12-16T02:06:47;99787.28;;;-4.92;100.00
4586;BME280;2305;50.118;8.952;2022-12-16T02:09:18;99790.78;;;-4.94;100.00
4586;BME280;2305;50.118;8.952;2022-12-16T02:11:59;99790.84;;;-4.97;100.00
4586;BME280;2305;50.118;8.952;2022-12-16T02:14:49;99790.94;;;-5.00;100.00
4586;BME280;2305;50.118;8.952;2022-12-16T02:17:27;99786.00;;;-5.08;100.00
4586;BME280;2305;50.118;8.952;2022-12-16T02:20:26;99790.31;;;-5.08;100.00
4586;BME280;2305;50.118;8.952;2022-12-16T02:23:25;99776.56;;;-5.06;100.00
4586;BME280;2305;50.118;8.952;2022-12-16T02:26:31;99792.03;;;-5.09;100.00
4586;BME280;2305;50.118;8.952;2022-12-16T02:29:25;99787.91;;;-5.14;100.00
4586;BME280;2305;50.118;8.952;2022-12-16T02:32:05;99782.72;;;-5.11;100.00
4586;BME280;2305;50.118;8.952;2022-12-16T02:34:43;99776.81;;;-5.15;100.00
4586;BME280;2305;50.118;8.952;2022-12-16T02:37:22;99767.47;;;-5.17;100.00
4586;BME280;2305;50.118;8.952;2022-12-16T02:39:59;99773.53;;;-5.20;100.00
4586;BME280;2305;50.118;8.952;2022-12-16T02:42:30;99772.59;;;-5.17;100.00
4586;BME280;2305;50.118;8.952;2022-12-16T02:45:00;99772.63;;;-5.19;100.00
4586;BME280;2305;50.118;8.952;2022-12-16T02:47:32;99766.72;;;-5.21;100.00
4586;BME280;2305;50.118;8.952;2022-12-16T02:50:01;99766.03;;;-5.27;100.00
4586;BME280;2305;50.118;8.952;2022-12-16T02:52:32;99768.66;;;-5.29;100.00
4586;BME280;2305;50.118;8.952;2022-12-16T02:55:05;99776.41;;;-5.32;100.00
4586;BME280;2305;50.118;8.952;2022-12-16T02:57:56;99772.16;;;-5.33;100.00
4586;BME280;2305;50.118;8.952;2022-12-16T03:00:37;99777.22;;;-5.30;100.00
4586;BME280;2305;50.118;8.952;2022-12-16T03:03:16;99774.84;;;-5.36;100.00
4586;BME280;2305;50.118;8.952;2022-12-16T03:05:49;99770.56;;;-5.37;100.00
4586;BME280;2305;50.118;8.952;2022-12-16T03:08:25;99778.34;;;-5.40;100.00
4586;BME280;2305;50.118;8.952;2022-12-16T03:11:00;99785.19;;;-5.40;100.00
4586;BME280;2305;50.118;8.952;2022-12-16T03:13:32;99780.94;;;-5.41;100.00
4586;BME280;2305;50.118;8.952;2022-12-16T03:16:05;99783.50;;;-5.41;100.00
4586;BME280;2305;50.118;8.952;2022-12-16T03:18:41;99777.63;;;-5.45;100.00
4586;BME280;2305;50.118;8.952;2022-12-16T03:21:11;99773.41;;;-5.47;100.00
4586;BME280;2305;50.118;8.952;2022-12-16T03:23:47;99782.84;;;-5.48;100.00
4586;BME280;2305;50.118;8.952;2022-12-16T03:26:20;99770.03;;;-5.49;100.00
4586;BME280;2305;50.118;8.952;2022-12-16T03:29:00;99772.69;;;-5.52;100.00
4586;BME280;2305;50.118;8.952;2022-12-16T03:31:35;99773.66;;;-5.56;100.00
4586;BME280;2305;50.118;8.952;2022-12-16T03:34:11;99778.88;;;-5.59;100.00
4586;BME280;2305;50.118;8.952;2022-12-16T03:36:43;99774.66;;;-5.62;100.00
4586;BME280;2305;50.118;8.952;2022-12-16T03:39:14;99793.38;;;-5.58;100.00
4586;BME280;2305;50.118;8.952;2022-12-16T03:41:47;99790.84;;;-5.60;100.00
4586;BME280;2305;50.118;8.952;2022-12-16T03:44:18;99789.25;;;-5.64;100.00
4586;BME280;2305;50.118;8.952;2022-12-16T03:46:50;99794.31;;;-5.62;100.00
4586;BME280;2305;50.118;8.952;2022-12-16T03:49:22;99803.75;;;-5.63;100.00
4586;BME280;2305;50.118;8.952;2022-12-16T03:51:52;99797.88;;;-5.66;100.00
4586;BME280;2305;50.118;8.952;2022-12-16T03:54:22;99802.94;;;-5.65;100.00
4586;BME280;2305;50.118;8.952;2022-12-16T03:56:52;99804.66;;;-5.64;100.00
4586;BME280;2305;50.118;8.952;2022-12-16T03:59:21;99806.34;;;-5.64;100.00
4586;BME280;2305;50.118;8.952;2022-12-16T04:01:50;99807.28;;;-5.68;100.00
4586;BME280;2305;50.118;8.952;2022-12-16T04:04:21;99803.97;;;-5.72;100.00
4586;BME280;2305;50.118;8.952;2022-12-16T04:06:49;99809.16;;;-5.73;100.00
4586;BME280;2305;50.118;8.952;2022-12-16T04:09:38;99804.91;;;-5.74;100.00
4586;BME280;2305;50.118;8.952;2022-12-16T04:12:08;99806.66;;;-5.76;100.00
4586;BME280;2305;50.118;8.952;2022-12-16T04:14:56;99810.97;;;-5.78;100.00
4586;BME280;2305;50.118;8.952;2022-12-16T04:18:15;99817.78;;;-5.77;100.00
4586;BME280;2305;50.118;8.952;2022-12-16T04:21:05;99813.69;;;-5.83;100.00
4586;BME280;2305;50.118;8.952;2022-12-16T04:23:53;99823.22;;;-5.88;100.00
4586;BME280;2305;50.118;8.952;2022-12-16T04:26:45;99822.38;;;-5.88;100.00
4586;BME280;2305;50.118;8.952;2022-12-16T04:29:39;99822.44;;;-5.91;100.00
4586;BME280;2305;50.118;8.952;2022-12-16T04:32:33;99826.75;;;-5.92;100.00
4586;BME280;2305;50.118;8.952;2022-12-16T04:35:15;99834.53;;;-5.96;100.00
4586;BME280;2305;50.118;8.952;2022-12-16T04:38:02;99830.28;;;-5.97;100.00
4586;BME280;2305;50.118;8.952;2022-12-16T04:40:48;99832.91;;;-6.00;100.00
4586;BME280;2305;50.118;8.952;2022-12-16T04:43:36;99838.16;;;-6.05;100.00
4586;BME280;2305;50.118;8.952;2022-12-16T04:46:24;99838.13;;;-6.03;100.00
4586;BME280;2305;50.118;8.952;2022-12-16T04:49:11;99843.31;;;-6.06;100.00
4586;BME280;2305;50.118;8.952;2022-12-16T04:51:57;99848.50;;;-6.09;100.00
4586;BME280;2305;50.118;8.952;2022-12-16T04:54:44;99853.88;;;-6.20;100.00
4586;BME280;2305;50.118;8.952;2022-12-16T04:57:32;99856.50;;;-6.23;100.00
4586;BME280;2305;50.118;8.952;2022-12-16T05:00:18;99855.66;;;-6.23;100.00
4586;BME280;2305;50.118;8.952;2022-12-16T05:03:04;99864.19;;;-6.23;100.00
4586;BME280;2305;50.118;8.952;2022-12-16T05:05:50;99866.75;;;-6.23;100.00
4586;BME280;2305;50.118;8.952;2022-12-16T05:08:36;99862.50;;;-6.24;100.00
4586;BME280;2305;50.118;8.952;2022-12-16T05:11:23;99868.47;;;-6.23;100.00
4586;BME280;2305;50.118;8.952;2022-12-16T05:14:09;99884.66;;;-6.21;100.00
4586;BME280;2305;50.118;8.952;2022-12-16T05:16:57;99894.94;;;-6.23;100.00
4586;BME280;2305;50.118;8.952;2022-12-16T05:19:43;99888.19;;;-6.27;100.00
4586;BME280;2305;50.118;8.952;2022-12-16T05:22:29;99890.88;;;-6.31;100.00
4586;BME280;2305;50.118;8.952;2022-12-16T05:25:16;99896.00;;;-6.33;100.00
4586;BME280;2305;50.118;8.952;2022-12-16T05:28:03;99899.47;;;-6.34;100.00
4586;BME280;2305;50.118;8.952;2022-12-16T05:30:49;99896.00;;;-6.33;100.00
4586;BME280;2305;50.118;8.952;2022-12-16T05:33:36;99907.88;;;-6.29;100.00
4586;BME280;2305;50.118;8.952;2022-12-16T05:36:22;99912.19;;;-6.31;100.00
4586;BME280;2305;50.118;8.952;2022-12-16T05:39:09;99916.50;;;-6.33;100.00
4586;BME280;2305;50.118;8.952;2022-12-16T05:41:54;99919.09;;;-6.34;100.00
4586;BME280;2305;50.118;8.952;2022-12-16T05:44:44;99917.31;;;-6.31;100.00
4586;BME280;2305;50.118;8.952;2022-12-16T05:47:30;99926.63;;;-6.27;100.00
4586;BME280;2305;50.118;8.952;2022-12-16T05:50:17;99932.75;;;-6.34;100.00
4586;BME280;2305;50.118;8.952;2022-12-16T05:53:10;99932.78;;;-6.35;100.00
4586;BME280;2305;50.118;8.952;2022-12-16T05:55:57;99943.03;;;-6.35;100.00
4586;BME280;2305;50.118;8.952;2022-12-16T05:58:43;99943.13;;;-6.40;100.00
4586;BME280;2305;50.118;8.952;2022-12-16T06:01:30;99954.25;;;-6.39;100.00
4586;BME280;2305;50.118;8.952;2022-12-16T06:04:18;99944.00;;;-6.41;100.00
4586;BME280;2305;50.118;8.952;2022-12-16T06:07:09;99948.25;;;-6.40;100.00
4586;BME280;2305;50.118;8.952;2022-12-16T06:09:57;99952.44;;;-6.36;100.00
4586;BME280;2305;50.118;8.952;2022-12-16T06:12:45;99961.00;;;-6.37;100.00
4586;BME280;2305;50.118;8.952;2022-12-16T06:15:30;99956.78;;;-6.39;100.00
4586;BME280;2305;50.118;8.952;2022-12-16T06:18:18;99964.47;;;-6.39;100.00
4586;BME280;2305;50.118;8.952;2022-12-16T06:21:06;99975.56;;;-6.39;100.00
4586;BME280;2305;50.118;8.952;2022-12-16T06:23:52;99984.09;;;-6.38;100.00
4586;BME280;2305;50.118;8.952;2022-12-16T06:26:41;99990.84;;;-6.36;100.00
4586;BME280;2305;50.118;8.952;2022-12-16T06:29:31;99982.34;;;-6.36;100.00
4586;BME280;2305;50.118;8.952;2022-12-16T06:32:17;99994.28;;;-6.37;100.00
4586;BME280;2305;50.118;8.952;2022-12-16T06:35:05;100000.25;;;-6.35;100.00
4586;BME280;2305;50.118;8.952;2022-12-16T06:37:51;100001.03;;;-6.31;100.00
4586;BME280;2305;50.118;8.952;2022-12-16T06:40:37;100010.44;;;-6.32;100.00
4586;BME280;2305;50.118;8.952;2022-12-16T06:43:23;100020.75;;;-6.35;100.00
4586;BME280;2305;50.118;8.952;2022-12-16T06:46:08;100029.34;;;-6.39;100.00
4586;BME280;2305;50.118;8.952;2022-12-16T06:48:59;100023.41;;;-6.39;100.00
4586;BME280;2305;50.118;8.952;2022-12-16T06:51:46;100030.41;;;-6.49;100.00
4586;BME280;2305;50.118;8.952;2022-12-16T06:54:32;100021.00;;;-6.48;100.00
4586;BME280;2305;50.118;8.952;2022-12-16T06:57:17;100031.25;;;-6.48;100.00
4586;BME280;2305;50.118;8.952;2022-12-16T07:00:18;100038.91;;;-6.47;100.00
4586;BME280;2305;50.118;8.952;2022-12-16T07:03:03;100047.50;;;-6.49;100.00
4586;BME280;2305;50.118;8.952;2022-12-16T07:05:51;100047.47;;;-6.48;100.00
4586;BME280;2305;50.118;8.952;2022-12-16T07:08:38;100045.78;;;-6.49;100.00
4586;BME280;2305;50.118;8.952;2022-12-16T07:11:26;100052.59;;;-6.48;100.00
4586;BME280;2305;50.118;8.952;2022-12-16T07:14:11;100057.84;;;-6.55;100.00
4586;BME280;2305;50.118;8.952;2022-12-16T07:17:09;100060.28;;;-6.49;100.00
4586;BME280;2305;50.118;8.952;2022-12-16T07:19:55;100067.00;;;-6.44;100.00
4586;BME280;2305;50.118;8.952;2022-12-16T07:22:46;100079.78;;;-6.39;100.00
4586;BME280;2305;50.118;8.952;2022-12-16T07:25:44;100077.22;;;-6.39;100.00
4586;BME280;2305;50.118;8.952;2022-12-16T07:28:30;100074.75;;;-6.45;100.00
4586;BME280;2305;50.118;8.952;2022-12-16T07:31:15;100074.75;;;-6.45;100.00
4586;BME280;2305;50.118;8.952;2022-12-16T07:34:03;100085.09;;;-6.51;100.00
4586;BME280;2305;50.118;8.952;2022-12-16T07:36:50;100092.88;;;-6.56;100.00
4586;BME280;2305;50.118;8.952;2022-12-16T07:39:37;100110.66;;;-6.48;100.00
4586;BME280;2305;50.118;8.952;2022-12-16T07:42:24;100111.50;;;-6.48;100.00
4586;BME280;2305;50.118;8.952;2022-12-16T07:45:11;100110.56;;;-6.44;100.00
4586;BME280;2305;50.118;8.952;2022-12-16T07:47:57;100124.31;;;-6.48;100.00
4586;BME280;2305;50.118;8.952;2022-12-16T07:50:43;100119.28;;;-6.54;100.00
4586;BME280;2305;50.118;8.952;2022-12-16T07:53:29;100126.16;;;-6.56;100.00
4586;BME280;2305;50.118;8.952;2022-12-16T07:56:19;100137.28;;;-6.57;100.00
4586;BME280;2305;50.118;8.952;2022-12-16T07:59:07;100136.38;;;-6.54;100.00
4586;BME280;2305;50.118;8.952;2022-12-16T08:01:53;100139.72;;;-6.49;100.00
4586;BME280;2305;50.118;8.952;2022-12-16T08:04:39;100148.97;;;-6.41;100.00
4586;BME280;2305;50.118;8.952;2022-12-16T08:07:23;100151.44;;;-6.35;100.00
4586;BME280;2305;50.118;8.952;2022-12-16T08:10:09;100159.00;;;-6.29;100.00
4586;BME280;2305;50.118;8.952;2022-12-16T08:12:58;100161.53;;;-6.26;100.00
4586;BME280;2305;50.118;8.952;2022-12-16T08:15:55;100168.34;;;-6.26;100.00
4586;BME280;2305;50.118;8.952;2022-12-16T08:18:40;100171.66;;;-6.20;100.00
4586;BME280;2305;50.118;8.952;2022-12-16T08:21:26;100172.38;;;-6.10;100.00
4586;BME280;2305;50.118;8.952;2022-12-16T08:24:13;100177.44;;;-6.07;100.00
4586;BME280;2305;50.118;8.952;2022-12-16T08:27:01;100186.69;;;-5.99;100.00
4586;BME280;2305;50.118;8.952;2022-12-16T08:29:47;100185.72;;;-5.93;100.00
4586;BME280;2305;50.118;8.952;2022-12-16T08:32:37;100178.75;;;-5.87;100.00
4586;BME280;2305;50.118;8.952;2022-12-16T08:35:29;100184.59;;;-5.79;100.00
4586;BME280;2305;50.118;8.952;2022-12-16T08:38:16;100190.41;;;-5.71;100.00
4586;BME280;2305;50.118;8.952;2022-12-16T08:41:02;100200.50;;;-5.63;100.00
4586;BME280;2305;50.118;8.952;2022-12-16T08:43:49;100198.69;;;-5.57;100.00
4586;BME280;2305;50.118;8.952;2022-12-16T08:46:35;100203.63;;;-5.46;100.00
4586;BME280;2305;50.118;8.952;2022-12-16T08:49:23;100203.44;;;-5.37;100.00
4586;BME280;2305;50.118;8.952;2022-12-16T08:52:09;100221.97;;;-5.23;100.00
4586;BME280;2305;50.118;8.952;2022-12-16T08:55:08;100220.81;;;-5.09;100.00
4586;BME280;2305;50.118;8.952;2022-12-16T08:57:58;100222.22;;;-4.94;100.00
4586;BME280;2305;50.118;8.952;2022-12-16T09:00:53;100237.28;;;-4.78;100.00
4586;BME280;2305;50.118;8.952;2022-12-16T09:03:39;100233.63;;;-4.68;100.00
4586;BME280;2305;50.118;8.952;2022-12-16T09:06:31;100229.94;;;-4.56;100.00
4586;BME280;2305;50.118;8.952;2022-12-16T09:09:17;100238.25;;;-4.45;100.00
4586;BME280;2305;50.118;8.952;2022-12-16T09:12:03;100244.84;;;-4.34;100.00
4586;BME280;2305;50.118;8.952;2022-12-16T09:14:52;100250.53;;;-4.22;100.00
4586;BME280;2305;50.118;8.952;2022-12-16T09:17:38;100251.16;;;-4.11;100.00
4586;BME280;2305;50.118;8.952;2022-12-16T09:20:24;100248.34;;;-4.02;100.00
4586;BME280;2305;50.118;8.952;2022-12-16T09:23:11;100253.31;;;-3.94;100.00
4586;BME280;2305;50.118;8.952;2022-12-16T09:25:57;100252.28;;;-3.87;100.00
4586;BME280;2305;50.118;8.952;2022-12-16T09:28:44;100256.28;;;-3.76;100.00
4586;BME280;2305;50.118;8.952;2022-12-16T09:31:29;100257.63;;;-3.63;100.00
4586;BME280;2305;50.118;8.952;2022-12-16T09:34:15;100265.91;;;-3.50;100.00
4586;BME280;2305;50.118;8.952;2022-12-16T09:37:01;100258.72;;;-3.39;100.00
4586;BME280;2305;50.118;8.952;2022-12-16T09:39:52;100264.50;;;-3.30;100.00
4586;BME280;2305;50.118;8.952;2022-12-16T09:42:47;100265.09;;;-3.20;100.00
4586;BME280;2305;50.118;8.952;2022-12-16T09:45:40;100262.25;;;-3.11;100.00
4586;BME280;2305;50.118;8.952;2022-12-16T09:48:41;100265.28;;;-2.97;100.00
4586;BME280;2305;50.118;8.952;2022-12-16T09:51:32;100273.50;;;-2.85;100.00
4586;BME280;2305;50.118;8.952;2022-12-16T09:54:24;100273.16;;;-2.73;100.00
4586;BME280;2305;50.118;8.952;2022-12-16T09:57:14;100271.97;;;-2.61;100.00
4586;BME280;2305;50.118;8.952;2022-12-16T10:00:05;100275.97;;;-2.51;100.00
4586;BME280;2305;50.118;8.952;2022-12-16T10:02:54;100279.09;;;-2.42;100.00
4586;BME280;2305;50.118;8.952;2022-12-16T10:05:48;100277.09;;;-2.32;100.00
4586;BME280;2305;50.118;8.952;2022-12-16T10:08:46;100266.41;;;-2.20;100.00
4586;BME280;2305;50.118;8.952;2022-12-16T10:11:42;100262.56;;;-2.07;100.00
4586;BME280;2305;50.118;8.952;2022-12-16T10:14:37;100261.22;;;-1.93;100.00
4586;BME280;2305;50.118;8.952;2022-12-16T10:17:25;100265.13;;;-1.81;100.00
4586;BME280;2305;50.118;8.952;2022-12-16T10:20:16;100269.13;;;-1.71;100.00
4586;BME280;2305;50.118;8.952;2022-12-16T10:23:13;100266.91;;;-1.57;100.00
4586;BME280;2305;50.118;8.952;2022-12-16T10:26:07;100268.41;;;-1.50;100.00
4586;BME280;2305;50.118;8.952;2022-12-16T10:29:03;100266.41;;;-1.42;100.00
4586;BME280;2305;50.118;8.952;2022-12-16T10:31:54;100261.81;;;-1.34;100.00
4586;BME280;2305;50.118;8.952;2022-12-16T10:34:39;100262.28;;;-1.23;100.00
4586;BME280;2305;50.118;8.952;2022-12-16T10:37:30;100266.09;;;-1.10;100.00
4586;BME280;2305;50.118;8.952;2022-12-16T10:40:24;100270.03;;;-0.99;100.00
4586;BME280;2305;50.118;8.952;2022-12-16T10:43:14;100269.66;;;-0.88;100.00
4586;BME280;2305;50.118;8.952;2022-12-16T10:46:05;100274.53;;;-0.81;100.00
4586;BME280;2305;50.118;8.952;2022-12-16T10:48:59;100268.28;;;-0.75;100.00
4586;BME280;2305;50.118;8.952;2022-12-16T10:51:48;100276.50;;;-0.64;100.00
4586;BME280;2305;50.118;8.952;2022-12-16T10:54:39;100271.09;;;-0.58;100.00
4586;BME280;2305;50.118;8.952;2022-12-16T10:57:36;100271.75;;;-0.53;100.00
4586;BME280;2305;50.118;8.952;2022-12-16T11:00:39;100276.91;;;-0.53;100.00
4586;BME280;2305;50.118;8.952;2022-12-16T11:03:29;100279.41;;;-0.50;100.00
4586;BME280;2305;50.118;8.952;2022-12-16T11:06:24;100277.38;;;-0.42;100.00
4586;BME280;2305;50.118;8.952;2022-12-16T11:09:21;100283.72;;;-0.28;100.00
4586;BME280;2305;50.118;8.952;2022-12-16T11:12:16;100275.41;;;-0.14;100.00
4586;BME280;2305;50.118;8.952;2022-12-16T11:15:18;100285.13;;;0.02;100.00
4586;BME280;2305;50.118;8.952;2022-12-16T11:18:13;100276.00;;;0.13;100.00
4586;BME280;2305;50.118;8.952;2022-12-16T11:21:13;100280.72;;;0.25;100.00
4586;BME280;2305;50.118;8.952;2022-12-16T11:24:12;100271.41;;;0.41;100.00
4586;BME280;2305;50.118;8.952;2022-12-16T11:27:02;100281.13;;;0.56;100.00
4586;BME280;2305;50.118;8.952;2022-12-16T11:29:50;100282.16;;;0.72;100.00
4586;BME280;2305;50.118;8.952;2022-12-16T11:32:42;100280.41;;;0.73;100.00
4586;BME280;2305;50.118;8.952;2022-12-16T11:35:35;100285.16;;;0.83;100.00
4586;BME280;2305;50.118;8.952;2022-12-16T11:38:26;100277.09;;;0.89;100.00
4586;BME280;2305;50.118;8.952;2022-12-16T11:41:26;100286.22;;;0.98;100.00
4586;BME280;2305;50.118;8.952;2022-12-16T11:44:18;100284.13;;;1.06;100.00
4586;BME280;2305;50.118;8.952;2022-12-16T11:47:17;100291.53;;;1.15;100.00
4586;BME280;2305;50.118;8.952;2022-12-16T11:50:08;100285.78;;;1.27;100.00
4586;BME280;2305;50.118;8.952;2022-12-16T11:52:58;100290.38;;;1.40;100.00
4586;BME280;2305;50.118;8.952;2022-12-16T11:55:51;100292.50;;;1.51;100.00
4586;BME280;2305;50.118;8.952;2022-12-16T11:58:46;100287.63;;;1.62;100.00
4586;BME280;2305;50.118;8.952;2022-12-16T12:01:36;100292.41;;;1.71;100.00
4586;BME280;2305;50.118;8.952;2022-12-16T12:04:24;100295.63;;;1.76;100.00
4586;BME280;2305;50.118;8.952;2022-12-16T12:07:25;100301.19;;;1.87;100.00
4586;BME280;2305;50.118;8.952;2022-12-16T12:10:36;100297.16;;;1.98;100.00
4586;BME280;2305;50.118;8.952;2022-12-16T12:13:38;100303.31;;;2.14;100.00
4586;BME280;2305;50.118;8.952;2022-12-16T12:16:33;100302.25;;;2.18;100.00
4586;BME280;2305;50.118;8.952;2022-12-16T12:19:51;100309.44;;;2.30;100.00
4586;BME280;2305;50.118;8.952;2022-12-16T12:22:40;100301.91;;;2.43;100.00
4586;BME280;2305;50.118;8.952;2022-12-16T12:25:32;100309.03;;;2.56;100.00
4586;BME280;2305;50.118;8.952;2022-12-16T12:28:32;100303.22;;;2.68;100.00
4586;BME280;2305;50.118;8.952;2022-12-16T12:31:33;100302.13;;;2.72;100.00
4586;BME280;2305;50.118;8.952;2022-12-16T12:34:32;100305.97;;;2.82;100.00
4586;BME280;2305;50.118;8.952;2022-12-16T12:37:25;100307.59;;;2.85;100.00
4586;BME280;2305;50.118;8.952;2022-12-16T12:40:22;100312.09;;;2.98;100.00
4586;BME280;2305;50.118;8.952;2022-12-16T12:43:20;100316.19;;;3.19;100.00
4586;BME280;2305;50.118;8.952;2022-12-16T12:46:17;100313.34;;;3.24;100.00
4586;BME280;2305;50.118;8.952;2022-12-16T12:49:13;100313.84;;;3.30;100.00
4586;BME280;2305;50.118;8.952;2022-12-16T12:52:13;100323.72;;;3.41;100.00
4586;BME280;2305;50.118;8.952;2022-12-16T12:55:06;100319.53;;;3.54;100.00
4586;BME280;2305;50.118;8.952;2022-12-16T12:57:54;100330.84;;;3.70;100.00
4586;BME280;2305;50.118;8.952;2022-12-16T13:00:51;100328.50;;;3.81;100.00
4586;BME280;2305;50.118;8.952;2022-12-16T13:03:43;100337.75;;;3.86;100.00
4586;BME280;2305;50.118;8.952;2022-12-16T13:06:33;100337.84;;;4.00;100.00
4586;BME280;2305;50.118;8.952;2022-12-16T13:09:27;100335.25;;;4.16;100.00
4586;BME280;2305;50.118;8.952;2022-12-16T13:12:25;100337.84;;;4.31;100.00
4586;BME280;2305;50.118;8.952;2022-12-16T13:15:19;100343.59;;;4.51;100.00
4586;BME280;2305;50.118;8.952;2022-12-16T13:18:22;100342.81;;;5.24;100.00
4586;BME280;2305;50.118;8.952;2022-12-16T13:21:44;100337.59;;;6.61;100.00
4586;BME280;2305;50.118;8.952;2022-12-16T13:24:43;100340.16;;;7.64;97.50
4586;BME280;2305;50.118;8.952;2022-12-16T13:27:55;100336.84;;;7.85;91.72
4586;BME280;2305;50.118;8.952;2022-12-16T13:30:57;100341.19;;;7.24;97.79
4586;BME280;2305;50.118;8.952;2022-12-16T13:33:51;100339.56;;;6.57;100.00
4586;BME280;2305;50.118;8.952;2022-12-16T13:36:37;100353.38;;;6.06;100.00
4586;BME280;2305;50.118;8.952;2022-12-16T13:39:27;100349.84;;;5.79;100.00
4586;BME280;2305;50.118;8.952;2022-12-16T13:42:46;100355.91;;;5.66;100.00
4586;BME280;2305;50.118;8.952;2022-12-16T13:45:40;100359.91;;;5.71;100.00
4586;BME280;2305;50.118;8.952;2022-12-16T13:48:36;100366.63;;;5.89;100.00
4586;BME280;2305;50.118;8.952;2022-12-16T13:54:59;100380.19;;;6.10;100.00
4586;BME280;2305;50.118;8.952;2022-12-16T13:57:54;100374.84;;;6.11;100.00
4586;BME280;2305;50.118;8.952;2022-12-16T14:00:53;100385.78;;;6.04;100.00
4586;BME280;2305;50.118;8.952;2022-12-16T14:03:44;100383.81;;;6.07;100.00
4586;BME280;2305;50.118;8.952;2022-12-16T14:06:34;100390.38;;;6.00;100.00
4586;BME280;2305;50.118;8.952;2022-12-16T14:09:29;100389.50;;;5.86;100.00
4586;BME280;2305;50.118;8.952;2022-12-16T14:12:31;100399.03;;;5.73;100.00
4586;BME280;2305;50.118;8.952;2022-12-16T14:15:28;100399.97;;;5.58;100.00
4586;BME280;2305;50.118;8.952;2022-12-16T14:18:36;100406.84;;;5.45;100.00
4586;BME280;2305;50.118;8.952;2022-12-16T14:21:30;100419.59;;;5.35;100.00
4586;BME280;2305;50.118;8.952;2022-12-16T14:24:25;100420.16;;;5.26;100.00
4586;BME280;2305;50.118;8.952;2022-12-16T14:27:18;100428.69;;;5.14;100.00
4586;BME280;2305;50.118;8.952;2022-12-16T14:30:17;100425.16;;;5.00;100.00
4586;BME280;2305;50.118;8.952;2022-12-16T14:33:15;100436.47;;;4.85;100.00
4586;BME280;2305;50.118;8.952;2022-12-16T14:36:02;100439.03;;;4.71;100.00
4586;BME280;2305;50.118;8.952;2022-12-16T14:38:53;100444.28;;;4.55;100.00
4586;BME280;2305;50.118;8.952;2022-12-16T14:41:49;100445.50;;;4.33;100.00
4586;BME280;2305;50.118;8.952;2022-12-16T14:44:37;100450.19;;;4.11;100.00
4586;BME280;2305;50.118;8.952;2022-12-16T14:47:38;100454.88;;;3.89;100.00
4586;BME280;2305;50.118;8.952;2022-12-16T14:50:26;100451.00;;;3.64;100.00